createdAt,value
2018-07-01T00:02:54.082Z,21.30
2018-07-01T00:05:56.231Z,21.26
2018-07-01T00:08:58.287Z,21.23
2018-07-01T00:12:00.378Z,21.26
2018-07-01T00:15:02.514Z,21.28
2018-07-01T00:18:05.967Z,21.13
2018-07-01T00:21:08.143Z,21.07
2018-07-01T00:24:10.210Z,21.07
2018-07-01T00:27:12.345Z,20.97
2018-07-01T00:30:14.446Z,20.92
2018-07-01T00:33:17.633Z,20.90
2018-07-01T00:36:19.628Z,20.91
2018-07-01T00:39:21.759Z,20.90
2018-07-01T00:42:23.776Z,20.81
2018-07-01T00:45:26.852Z,20.79
2018-07-01T00:48:28.867Z,20.73
2018-07-01T00:51:30.852Z,20.67
2018-07-01T00:54:32.899Z,20.65
2018-07-01T00:57:36.247Z,20.61
2018-07-01T01:00:38.273Z,20.54
2018-07-01T01:03:40.375Z,20.50
2018-07-01T01:06:42.478Z,20.41
2018-07-01T01:09:44.519Z,20.39
2018-07-01T01:12:46.685Z,20.48
2018-07-01T01:15:48.715Z,20.35
2018-07-01T01:18:51.857Z,20.23
2018-07-01T01:21:54.208Z,20.28
2018-07-01T01:24:56.392Z,20.25
2018-07-01T01:27:58.431Z,20.27
2018-07-01T01:31:00.533Z,20.19
2018-07-01T01:34:02.733Z,20.11
2018-07-01T01:37:05.496Z,20.10
2018-07-01T01:40:09.580Z,19.97
2018-07-01T01:43:15.845Z,19.95
2018-07-01T01:46:34.524Z,19.93
2018-07-01T01:49:44.077Z,19.93
2018-07-01T01:52:51.658Z,19.88
2018-07-01T01:56:58.260Z,19.77
2018-07-01T02:00:05.203Z,19.76
2018-07-01T02:03:11.700Z,19.73
2018-07-01T02:06:16.621Z,19.72
2018-07-01T02:09:20.964Z,19.68
2018-07-01T02:12:23.195Z,19.70
2018-07-01T02:15:31.831Z,19.61
2018-07-01T02:18:36.035Z,19.49
2018-07-01T02:21:38.260Z,19.43
2018-07-01T02:24:45.016Z,19.39
2018-07-01T02:27:47.135Z,19.41
2018-07-01T02:30:49.159Z,19.28
2018-07-01T02:33:53.312Z,19.28
2018-07-01T02:36:55.599Z,19.29
2018-07-01T02:39:58.825Z,19.19
2018-07-01T02:43:00.833Z,19.17
2018-07-01T02:46:05.112Z,19.12
2018-07-01T02:49:07.195Z,19.14
2018-07-01T02:52:09.680Z,19.06
2018-07-01T02:55:11.767Z,18.99
2018-07-01T02:58:13.806Z,18.90
2018-07-01T03:01:15.920Z,18.87
2018-07-01T03:04:17.989Z,18.77
2018-07-01T03:07:20.028Z,18.75
2018-07-01T03:10:22.295Z,18.74
2018-07-01T03:13:24.246Z,18.75
2018-07-01T03:16:26.351Z,18.69
2018-07-01T03:19:28.560Z,18.63
2018-07-01T03:22:30.544Z,18.62
2018-07-01T03:25:32.729Z,18.50
2018-07-01T03:28:35.884Z,18.55
2018-07-01T03:31:38.013Z,18.48
2018-07-01T03:34:40.101Z,18.48
2018-07-01T03:37:42.075Z,18.37
2018-07-01T03:40:44.222Z,18.31
2018-07-01T03:43:46.324Z,18.29
2018-07-01T03:46:48.287Z,18.25
2018-07-01T03:49:50.370Z,18.28
2018-07-01T03:52:52.541Z,18.26
2018-07-01T03:55:54.570Z,18.27
2018-07-01T04:01:58.441Z,18.22
2018-07-01T04:05:00.464Z,18.14
2018-07-01T04:08:02.596Z,18.21
2018-07-01T04:11:05.755Z,18.19
2018-07-01T04:14:07.987Z,18.18
2018-07-01T04:17:10.132Z,18.23
2018-07-01T04:20:13.353Z,18.29
2018-07-01T04:23:15.486Z,18.28
2018-07-01T04:26:17.435Z,18.20
2018-07-01T04:29:19.559Z,18.25
2018-07-01T04:32:21.719Z,18.19
2018-07-01T04:35:23.716Z,18.25
2018-07-01T04:38:25.695Z,18.32
2018-07-01T04:41:27.788Z,18.34
2018-07-01T04:44:29.880Z,18.38
2018-07-01T04:50:33.464Z,18.42
2018-07-01T04:53:35.908Z,18.52
2018-07-01T04:56:37.949Z,18.51
2018-07-01T04:59:39.997Z,18.49
2018-07-01T05:02:41.994Z,18.51
2018-07-01T05:05:45.084Z,18.54
2018-07-01T05:08:47.200Z,18.58
2018-07-01T05:11:49.275Z,18.62
2018-07-01T05:14:51.372Z,18.64
2018-07-01T05:17:53.424Z,18.62
2018-07-01T05:20:56.552Z,18.62
2018-07-01T05:23:58.613Z,18.72
2018-07-01T05:27:00.643Z,18.82
2018-07-01T05:30:02.882Z,18.87
2018-07-01T05:33:05.209Z,18.86
2018-07-01T05:36:07.303Z,18.90
2018-07-01T05:39:10.932Z,18.97
2018-07-01T05:42:12.931Z,19.00
2018-07-01T05:45:19.784Z,19.10
2018-07-01T05:48:21.808Z,19.21
2018-07-01T05:51:24.009Z,19.27
2018-07-01T05:54:26.943Z,19.31
2018-07-01T05:57:29.474Z,19.37
2018-07-01T06:00:31.636Z,19.39
2018-07-01T06:03:33.721Z,19.50
2018-07-01T06:06:36.935Z,19.63
2018-07-01T06:09:40.273Z,19.64
2018-07-01T06:12:42.532Z,19.68
2018-07-01T06:15:44.683Z,19.75
2018-07-01T06:18:46.856Z,19.84
2018-07-01T06:21:48.976Z,19.87
2018-07-01T06:24:51.078Z,19.93
2018-07-01T06:27:53.112Z,20.03
2018-07-01T06:30:55.210Z,20.15
2018-07-01T06:33:57.364Z,20.12
2018-07-01T06:36:59.443Z,20.27
2018-07-01T06:40:01.614Z,20.32
2018-07-01T06:43:03.772Z,20.43
2018-07-01T06:46:06.011Z,20.46
2018-07-01T06:49:09.894Z,20.59
2018-07-01T06:52:11.927Z,20.70
2018-07-01T06:55:14.838Z,20.69
2018-07-01T06:58:17.066Z,20.79
2018-07-01T07:01:19.559Z,20.91
2018-07-01T07:04:21.832Z,21.08
2018-07-01T07:07:23.961Z,21.16
2018-07-01T07:10:26.084Z,21.20
2018-07-01T07:13:28.103Z,21.27
2018-07-01T07:16:30.104Z,21.43
2018-07-01T07:19:32.192Z,21.49
2018-07-01T07:22:36.312Z,21.54
2018-07-01T07:25:39.819Z,21.59
2018-07-01T07:28:41.884Z,21.78
2018-07-01T07:31:44.362Z,21.85
2018-07-01T07:34:46.398Z,21.94
2018-07-01T07:37:48.538Z,22.00
2018-07-01T07:40:50.679Z,22.17
2018-07-01T07:43:52.990Z,22.25
2018-07-01T07:46:55.082Z,22.26
2018-07-01T07:49:57.183Z,22.26
2018-07-01T07:53:00.409Z,22.34
2018-07-01T07:56:02.588Z,22.43
2018-07-01T07:59:04.727Z,22.42
2018-07-01T08:02:07.152Z,22.39
2018-07-01T08:05:10.148Z,22.47
2018-07-01T08:08:12.242Z,22.54
2018-07-01T08:11:14.328Z,22.63
2018-07-01T08:14:16.366Z,22.77
2018-07-01T08:17:18.495Z,22.93
2018-07-01T08:20:20.629Z,23.03
2018-07-01T08:23:23.711Z,23.08
2018-07-01T08:26:25.747Z,23.09
2018-07-01T08:29:28.046Z,23.21
2018-07-01T08:32:30.079Z,23.24
2018-07-01T08:35:32.167Z,23.39
2018-07-01T08:38:34.311Z,23.55
2018-07-01T08:42:45.829Z,23.67
2018-07-01T08:45:49.069Z,23.68
2018-07-01T08:48:51.116Z,23.70
2018-07-01T08:51:53.307Z,23.85
2018-07-01T08:54:55.344Z,24.02
2018-07-01T08:57:57.466Z,24.31
2018-07-01T09:00:59.592Z,24.27
2018-07-01T09:04:01.749Z,24.40
2018-07-01T09:07:03.924Z,24.48
2018-07-01T09:10:06.099Z,24.52
2018-07-01T09:13:08.904Z,24.58
2018-07-01T09:16:11.085Z,24.64
2018-07-01T09:19:15.073Z,24.71
2018-07-01T09:22:17.235Z,24.77
2018-07-01T09:25:19.901Z,24.88
2018-07-01T09:28:22.067Z,24.89
2018-07-01T09:31:24.185Z,24.93
2018-07-01T09:34:27.319Z,24.95
2018-07-01T09:37:29.340Z,25.12
2018-07-01T09:40:31.420Z,25.25
2018-07-01T09:43:33.387Z,25.37
2018-07-01T09:46:35.904Z,25.53
2018-07-01T09:49:38.039Z,25.75
2018-07-01T09:52:40.113Z,25.78
2018-07-01T09:55:42.281Z,25.79
2018-07-01T09:58:44.244Z,25.78
2018-07-01T10:01:46.423Z,25.67
2018-07-01T10:04:49.121Z,25.64
2018-07-01T10:07:52.206Z,25.87
2018-07-01T10:10:54.321Z,25.94
2018-07-01T10:13:56.440Z,25.83
2018-07-01T10:16:58.609Z,25.86
2018-07-01T10:20:00.678Z,26.06
2018-07-01T10:23:02.812Z,26.19
2018-07-01T10:26:04.982Z,26.08
2018-07-01T10:29:09.085Z,26.26
2018-07-01T10:32:11.145Z,26.20
2018-07-01T10:35:13.327Z,26.33
2018-07-01T10:38:15.415Z,26.09
2018-07-01T10:41:17.535Z,26.19
2018-07-01T10:44:20.527Z,26.23
2018-07-01T10:47:22.743Z,26.42
2018-07-01T10:50:24.820Z,26.62
2018-07-01T10:53:26.820Z,26.78
2018-07-01T10:56:28.889Z,26.92
2018-07-01T10:59:30.852Z,27.03
2018-07-01T11:02:32.910Z,26.87
2018-07-01T11:05:34.974Z,26.79
2018-07-01T11:08:37.843Z,27.14
2018-07-01T11:11:40.431Z,27.23
2018-07-01T11:14:42.650Z,26.75
2018-07-01T11:17:45.272Z,26.92
2018-07-01T11:20:47.476Z,26.97
2018-07-01T11:23:50.969Z,27.20
2018-07-01T11:26:53.249Z,27.36
2018-07-01T11:29:55.115Z,27.36
2018-07-01T11:32:57.197Z,27.06
2018-07-01T11:35:59.250Z,27.26
2018-07-01T11:39:01.363Z,27.48
2018-07-01T11:42:03.578Z,27.70
2018-07-01T11:45:05.623Z,27.56
2018-07-01T11:48:07.710Z,27.70
2018-07-01T11:51:09.832Z,27.71
2018-07-01T11:54:11.879Z,27.82
2018-07-01T11:57:14.092Z,27.79
2018-07-01T12:00:16.262Z,27.82
2018-07-01T12:03:19.142Z,27.85
2018-07-01T12:06:21.255Z,28.05
2018-07-01T12:09:24.380Z,27.83
2018-07-01T12:12:26.456Z,28.00
2018-07-01T12:15:28.644Z,28.16
2018-07-01T12:18:30.687Z,28.05
2018-07-01T12:21:32.725Z,28.37
2018-07-01T12:24:34.836Z,28.19
2018-07-01T12:27:37.238Z,28.15
2018-07-01T12:30:39.683Z,27.97
2018-07-01T12:33:41.782Z,28.30
2018-07-01T12:36:43.967Z,28.39
2018-07-01T12:39:46.909Z,28.49
2018-07-01T12:42:49.007Z,28.65
2018-07-01T12:45:51.103Z,28.83
2018-07-01T12:48:53.226Z,28.44
2018-07-01T12:51:55.306Z,28.44
2018-07-01T12:54:57.567Z,28.62
2018-07-01T12:57:59.703Z,28.66
2018-07-01T13:01:01.970Z,28.67
2018-07-01T13:04:04.098Z,28.28
2018-07-01T13:07:06.721Z,28.35
2018-07-01T13:10:08.884Z,28.29
2018-07-01T13:13:10.886Z,28.65
2018-07-01T13:16:13.231Z,28.78
2018-07-01T13:19:15.615Z,29.00
2018-07-01T13:22:18.422Z,29.07
2018-07-01T13:25:20.816Z,28.95
2018-07-01T13:28:22.860Z,29.20
2018-07-01T13:31:25.166Z,29.38
2018-07-01T13:34:27.335Z,29.25
2018-07-01T13:37:31.563Z,29.14
2018-07-01T13:40:33.924Z,28.94
2018-07-01T13:43:35.882Z,29.31
2018-07-01T13:46:37.926Z,29.61
2018-07-01T13:49:40.133Z,29.60
2018-07-01T13:52:45.686Z,29.50
2018-07-01T13:55:48.816Z,29.43
2018-07-01T13:58:51.037Z,29.32
2018-07-01T14:01:53.177Z,29.29
2018-07-01T14:04:55.653Z,29.39
2018-07-01T14:07:57.771Z,29.31
2018-07-01T14:10:59.820Z,29.30
2018-07-01T14:14:01.962Z,29.46
2018-07-01T14:17:04.383Z,29.56
2018-07-01T14:20:09.483Z,29.73
2018-07-01T14:23:11.713Z,29.63
2018-07-01T14:26:13.928Z,29.83
2018-07-01T14:29:15.948Z,29.75
2018-07-01T14:32:18.690Z,29.82
2018-07-01T14:35:20.792Z,30.02
2018-07-01T14:38:23.062Z,30.15
2018-07-01T14:41:25.210Z,30.02
2018-07-01T14:44:27.340Z,29.97
2018-07-01T14:47:29.374Z,29.95
2018-07-01T14:50:31.452Z,29.81
2018-07-01T14:53:33.739Z,29.54
2018-07-01T14:56:35.830Z,29.59
2018-07-01T14:59:38.054Z,29.66
2018-07-01T15:02:40.236Z,29.40
2018-07-01T15:05:42.312Z,29.22
2018-07-01T15:08:44.562Z,29.55
2018-07-01T15:11:46.648Z,29.57
2018-07-01T15:14:49.511Z,29.40
2018-07-01T15:17:51.487Z,29.60
2018-07-01T15:20:53.852Z,29.69
2018-07-01T15:23:55.912Z,29.77
2018-07-01T15:26:58.102Z,29.89
2018-07-01T15:30:06.744Z,29.86
2018-07-01T15:33:08.831Z,29.74
2018-07-01T15:36:11.004Z,29.57
2018-07-01T15:39:13.039Z,29.61
2018-07-01T15:42:15.191Z,29.16
2018-07-01T15:45:19.322Z,28.85
2018-07-01T15:48:22.460Z,28.86
2018-07-01T15:51:25.564Z,29.32
2018-07-01T15:54:27.835Z,29.46
2018-07-01T15:57:30.006Z,29.66
2018-07-01T16:00:32.188Z,29.54
2018-07-01T16:03:34.214Z,29.44
2018-07-01T16:06:36.439Z,29.03
2018-07-01T16:09:38.530Z,28.86
2018-07-01T16:12:40.624Z,28.63
2018-07-01T16:15:42.726Z,28.77
2018-07-01T16:18:44.854Z,28.84
2018-07-01T16:21:46.916Z,28.98
2018-07-01T16:24:55.920Z,28.92
2018-07-01T16:28:03.958Z,28.84
2018-07-01T16:31:06.024Z,28.95
2018-07-01T16:34:08.093Z,29.05
2018-07-01T16:37:10.359Z,28.91
2018-07-01T16:40:12.502Z,28.77
2018-07-01T16:43:14.606Z,28.84
2018-07-01T16:46:16.873Z,28.54
2018-07-01T16:49:19.945Z,28.51
2018-07-01T16:52:21.996Z,28.49
2018-07-01T16:55:25.072Z,28.52
2018-07-01T16:58:27.208Z,28.57
2018-07-01T17:01:29.579Z,28.55
2018-07-01T17:04:31.671Z,28.57
2018-07-01T17:07:36.144Z,28.62
2018-07-01T17:10:38.223Z,28.56
2018-07-01T17:13:40.348Z,28.52
2018-07-01T17:16:42.375Z,28.48
2018-07-01T17:19:44.607Z,28.42
2018-07-01T17:22:46.576Z,28.30
2018-07-01T17:25:53.594Z,28.24
2018-07-01T17:28:55.693Z,28.25
2018-07-01T17:32:03.450Z,28.17
2018-07-01T17:35:05.568Z,28.04
2018-07-01T17:38:07.705Z,27.94
2018-07-01T17:41:09.731Z,27.97
2018-07-01T17:44:11.846Z,27.92
2018-07-01T17:47:13.948Z,27.82
2018-07-01T17:50:16.001Z,27.77
2018-07-01T17:53:29.748Z,27.73
2018-07-01T17:56:31.907Z,27.66
2018-07-01T17:59:33.999Z,27.53
2018-07-01T18:02:36.219Z,27.44
2018-07-01T18:05:38.871Z,27.36
2018-07-01T18:08:41.076Z,27.33
2018-07-01T18:11:43.167Z,27.34
2018-07-01T18:14:45.304Z,27.39
2018-07-01T18:17:47.426Z,27.33
2018-07-01T18:20:50.367Z,27.25
2018-07-01T18:24:19.498Z,27.08
2018-07-01T18:26:54.803Z,27.09
2018-07-01T18:29:57.012Z,27.01
2018-07-01T18:32:59.113Z,26.86
2018-07-01T18:36:01.259Z,26.71
2018-07-01T18:39:06.143Z,26.68
2018-07-01T18:42:08.175Z,26.58
2018-07-01T18:45:10.243Z,26.47
2018-07-01T18:48:12.325Z,26.46
2018-07-01T18:54:16.509Z,26.22
2018-07-01T18:57:19.732Z,26.17
2018-07-01T19:00:22.058Z,26.10
2018-07-01T19:03:24.617Z,25.98
2018-07-01T19:06:26.967Z,25.90
2018-07-01T19:09:29.073Z,25.82
2018-07-01T19:12:31.682Z,25.77
2018-07-01T19:15:34.160Z,25.63
2018-07-01T19:18:36.685Z,25.47
2018-07-01T19:21:40.180Z,25.33
2018-07-01T19:24:42.617Z,25.25
2018-07-01T19:27:45.676Z,25.15
2018-07-01T19:30:48.128Z,25.12
2018-07-01T19:33:51.015Z,25.04
2018-07-01T19:36:53.173Z,24.98
2018-07-01T19:39:55.374Z,24.92
2018-07-01T19:42:57.593Z,24.86
2018-07-01T19:45:59.512Z,24.74
2018-07-01T19:49:01.610Z,24.72
2018-07-01T19:52:03.830Z,24.63
2018-07-01T19:55:06.087Z,24.47
2018-07-01T19:58:08.105Z,24.44
2018-07-01T20:01:10.204Z,24.42
2018-07-01T20:04:12.413Z,24.38
2018-07-01T20:07:14.792Z,24.30
2018-07-01T20:10:17.005Z,24.21
2018-07-01T20:13:19.046Z,24.19
2018-07-01T20:16:21.133Z,24.16
2018-07-01T20:19:23.803Z,24.16
2018-07-01T20:22:25.904Z,24.20
2018-07-01T20:25:27.997Z,24.17
2018-07-01T20:28:30.135Z,24.12
2018-07-01T20:31:32.166Z,24.05
2018-07-01T20:34:34.258Z,24.06
2018-07-01T20:37:36.336Z,24.03
2018-07-01T20:40:39.432Z,23.97
2018-07-01T20:43:41.606Z,23.90
2018-07-01T20:46:43.642Z,23.84
2018-07-01T20:49:45.730Z,23.76
2018-07-01T20:52:47.710Z,23.70
2018-07-01T20:55:49.769Z,23.66
2018-07-01T20:58:53.326Z,23.61
2018-07-01T21:01:56.226Z,23.53
2018-07-01T21:04:58.384Z,23.46
2018-07-01T21:08:00.520Z,23.42
2018-07-01T21:11:02.561Z,23.31
2018-07-01T21:14:04.872Z,23.27
2018-07-01T21:17:07.055Z,23.19
2018-07-01T21:20:09.103Z,23.17
2018-07-01T21:23:12.149Z,23.12
2018-07-01T21:26:14.243Z,23.03
2018-07-01T21:29:16.274Z,23.07
2018-07-01T21:32:19.354Z,23.01
2018-07-01T21:35:21.490Z,22.90
2018-07-01T21:38:23.536Z,22.89
2018-07-01T21:41:25.673Z,22.82
2018-07-01T21:44:27.850Z,22.75
2018-07-01T21:47:29.974Z,22.74
2018-07-01T21:50:32.062Z,22.71
2018-07-01T21:53:34.003Z,22.68
2018-07-01T21:56:36.056Z,22.68
2018-07-01T21:59:38.098Z,22.65
2018-07-01T22:02:40.199Z,22.63
2018-07-01T22:05:42.161Z,22.58
2018-07-01T22:08:44.343Z,22.55
2018-07-01T22:11:58.776Z,22.47
2018-07-01T22:15:17.554Z,22.42
2018-07-01T22:18:19.631Z,22.35
2018-07-01T22:21:21.783Z,22.25
2018-07-01T22:24:25.079Z,22.23
2018-07-01T22:27:27.164Z,22.19
2018-07-01T22:30:29.215Z,22.10
2018-07-01T22:33:31.297Z,21.96
2018-07-01T22:36:33.725Z,21.87
2018-07-01T22:39:35.730Z,21.79
2018-07-01T22:42:37.735Z,21.77
2018-07-01T22:45:39.924Z,21.76
2018-07-01T22:48:41.934Z,21.77
2018-07-01T22:51:44.118Z,21.76
2018-07-01T22:54:46.181Z,21.67
2018-07-01T22:57:48.259Z,21.56
2018-07-01T23:00:50.236Z,21.48
2018-07-01T23:03:52.285Z,21.38
2018-07-01T23:06:55.074Z,21.31
2018-07-01T23:09:57.128Z,21.28
2018-07-01T23:12:59.671Z,21.26
2018-07-01T23:16:01.856Z,21.25
2018-07-01T23:19:04.164Z,21.16
2018-07-01T23:22:06.210Z,21.19
2018-07-01T23:25:08.511Z,21.21
2018-07-01T23:28:10.566Z,21.12
2018-07-01T23:31:12.663Z,21.01
2018-07-01T23:34:14.678Z,20.98
2018-07-01T23:37:16.770Z,20.97
2018-07-01T23:40:18.912Z,21.01
2018-07-01T23:43:21.333Z,20.93
2018-07-01T23:46:23.408Z,20.89
2018-07-01T23:49:27.858Z,20.78
2018-07-01T23:52:29.963Z,20.75
2018-07-01T23:55:32.040Z,20.67
2018-07-01T23:58:34.175Z,20.69
